Time;durP1;ratioP1;P1;durP2;ratioP2;P2;SDS_P1;SDS_P2;PMS_P1;PMS_P2;Temp;Humidity;BMP_temperature;BMP_pressure;BME280_temperature;BME280_humidity;BME280_pressure;Samples;Min_cycle;Max_cycle;Signal;HPM_P1;HPM_P2
2022/01/23 00:01:24;;;;;;;9.43;6.50;;;3.80;99.90;;;;;;4946019;29;20464;-76
2022/01/23 00:03:50;;;;;;;9.63;6.80;;;3.80;99.90;;;;;;4948485;28;20488;-75
2022/01/23 00:06:16;;;;;;;10.80;6.80;;;3.80;99.90;;;;;;4945948;29;20519;-75
2022/01/23 00:08:41;;;;;;;10.87;7.80;;;3.80;99.90;;;;;;4948746;28;20222;-75
2022/01/23 00:11:07;;;;;;;13.60;7.60;;;3.80;99.90;;;;;;4949122;29;20445;-76
2022/01/23 00:17:14;;;;;;;15.77;7.20;;;3.80;99.90;;;;;;4954123;28;20242;-76
2022/01/23 00:19:02;;;;;;;14.60;9.27;;;3.80;99.90;;;;;;4951061;28;20564;-76
2022/01/23 00:21:28;;;;;;;11.73;7.83;;;3.90;99.90;;;;;;4952806;28;20889;-76
2022/01/23 00:31:51;;;;;;;12.70;7.63;;;3.80;99.90;;;;;;4954175;28;20480;-76
2022/01/23 00:34:17;;;;;;;13.70;7.60;;;3.80;99.90;;;;;;4953973;29;20421;-76
2022/01/23 00:36:43;;;;;;;13.93;7.60;;;3.80;99.90;;;;;;4954138;28;20212;-76
2022/01/23 00:39:08;;;;;;;12.00;6.93;;;3.80;99.90;;;;;;4954040;28;20919;-77
2022/01/23 00:41:34;;;;;;;14.50;8.57;;;3.90;99.90;;;;;;4953773;28;20203;-77
2022/01/23 00:44:00;;;;;;;11.03;7.70;;;3.80;99.90;;;;;;4954120;28;20192;-76
2022/01/23 00:46:35;;;;;;;11.90;7.67;;;3.90;99.90;;;;;;4953929;28;20178;-77
2022/01/23 00:49:24;;;;;;;10.30;7.47;;;3.80;99.90;;;;;;4954175;28;20420;-77
2022/01/23 00:51:50;;;;;;;12.13;7.67;;;3.80;99.90;;;;;;4953853;28;20477;-77
2022/01/23 00:54:16;;;;;;;9.30;7.23;;;3.80;99.90;;;;;;4954130;28;20504;-77
2022/01/23 00:56:41;;;;;;;13.30;7.67;;;3.80;99.90;;;;;;4954174;29;20498;-76
2022/01/23 00:59:07;;;;;;;10.53;7.23;;;3.80;99.90;;;;;;4953963;29;20281;-77
2022/01/23 05:31:35;;;;;;;18.90;11.20;;;3.60;99.90;;;;;;5618133;23;20336;-73
2022/01/23 05:34:00;;;;;;;20.10;11.20;;;3.60;99.90;;;;;;4945584;29;20807;-76
2022/01/23 05:36:26;;;;;;;22.20;11.77;;;3.60;99.90;;;;;;4948752;29;20196;-77
2022/01/23 05:38:51;;;;;;;16.40;10.97;;;3.60;99.90;;;;;;4953556;28;20175;-76
2022/01/23 05:41:17;;;;;;;17.63;11.47;;;3.60;99.90;;;;;;4950841;28;20229;-76
2022/01/23 05:43:42;;;;;;;20.27;11.43;;;3.60;99.90;;;;;;4953094;29;20188;-77
2022/01/23 05:46:08;;;;;;;20.70;10.50;;;3.60;99.90;;;;;;4951043;29;20193;-77
2022/01/23 05:48:34;;;;;;;18.53;10.60;;;3.70;99.90;;;;;;4953585;29;20180;-77
2022/01/23 05:50:59;;;;;;;18.70;10.90;;;3.70;99.90;;;;;;4948648;28;20260;-77
2022/01/23 05:53:25;;;;;;;20.03;10.60;;;3.70;99.90;;;;;;4952370;29;20209;-76
2022/01/23 05:55:50;;;;;;;15.80;10.43;;;3.60;99.90;;;;;;4951315;29;20687;-76
2022/01/23 05:58:16;;;;;;;17.40;11.23;;;3.60;99.90;;;;;;4950267;28;20189;-76
2022/01/23 06:00:41;;;;;;;19.60;10.53;;;3.60;99.90;;;;;;4949795;28;20191;-77
2022/01/23 06:03:07;;;;;;;18.87;10.23;;;3.60;99.90;;;;;;4956692;29;20194;-77
2022/01/23 06:05:33;;;;;;;18.57;10.20;;;3.60;99.90;;;;;;4954783;29;20197;-77
2022/01/23 06:07:58;;;;;;;14.13;8.93;;;3.50;99.90;;;;;;4955327;29;20669;-77
2022/01/23 06:10:26;;;;;;;17.60;9.90;;;3.60;99.90;;;;;;4957062;29;20186;-77
2022/01/23 06:12:52;;;;;;;18.23;11.40;;;3.50;99.90;;;;;;4950521;28;20221;-78
2022/01/23 06:15:18;;;;;;;18.20;10.53;;;3.60;99.90;;;;;;4956612;28;20494;-77
2022/01/23 06:17:44;;;;;;;17.53;11.10;;;3.60;99.90;;;;;;4954595;29;20422;-77
2022/01/23 06:20:12;;;;;;;17.90;10.17;;;3.50;99.90;;;;;;4954438;28;20190;-78
2022/01/23 06:22:38;;;;;;;20.90;11.07;;;3.60;99.90;;;;;;4954595;28;20440;-77
2022/01/23 06:25:07;;;;;;;18.10;9.97;;;3.50;99.90;;;;;;4954289;28;20438;-76
2022/01/23 06:27:33;;;;;;;18.33;10.63;;;3.60;99.90;;;;;;4956863;28;20190;-77
2022/01/23 06:29:59;;;;;;;18.47;10.37;;;3.60;99.90;;;;;;4956621;29;20834;-77
2022/01/23 06:32:25;;;;;;;21.20;12.17;;;3.60;99.90;;;;;;4955113;28;20221;-77
2022/01/23 06:34:51;;;;;;;15.40;9.67;;;3.60;99.90;;;;;;4950889;29;20212;-77
2022/01/23 06:37:17;;;;;;;18.27;11.00;;;3.60;99.90;;;;;;4954581;29;20436;-77
2022/01/23 06:39:43;;;;;;;17.00;10.33;;;3.60;99.90;;;;;;4955531;29;20595;-77
2022/01/23 06:42:09;;;;;;;19.40;10.87;;;3.60;99.90;;;;;;4956176;28;20704;-77
2022/01/23 06:44:36;;;;;;;22.50;12.10;;;3.60;99.90;;;;;;4954421;28;20189;-77
2022/01/23 06:47:02;;;;;;;21.03;10.93;;;3.60;99.90;;;;;;4954030;28;20515;-78
2022/01/23 06:49:28;;;;;;;22.00;11.47;;;3.60;99.90;;;;;;4952808;28;20514;-77
2022/01/23 06:51:53;;;;;;;23.00;10.90;;;3.60;99.90;;;;;;4955295;28;20496;-76
2022/01/23 06:54:19;;;;;;;19.63;11.30;;;3.50;99.90;;;;;;4955687;29;20191;-76
2022/01/23 06:56:45;;;;;;;19.00;10.90;;;3.50;99.90;;;;;;4952349;28;20607;-74
2022/01/23 06:59:11;;;;;;;19.80;11.80;;;3.60;99.90;;;;;;4955947;28;20476;-74
2022/01/23 07:01:36;;;;;;;21.97;12.57;;;3.60;99.90;;;;;;4953806;28;20440;-75
2022/01/23 07:04:02;;;;;;;22.70;12.30;;;3.60;99.90;;;;;;4955624;29;20265;-75
2022/01/23 07:06:28;;;;;;;19.47;11.97;;;3.60;99.90;;;;;;4951609;29;20190;-75
2022/01/23 07:08:53;;;;;;;24.27;13.03;;;3.70;99.90;;;;;;4955426;28;20426;-75
2022/01/23 07:11:19;;;;;;;21.67;11.47;;;3.70;99.90;;;;;;4953425;28;20216;-76
2022/01/23 07:13:45;;;;;;;22.30;13.03;;;3.70;99.90;;;;;;4955594;29;20221;-75
2022/01/23 07:16:10;;;;;;;22.43;13.57;;;3.70;99.90;;;;;;4954827;28;20283;-75
2022/01/23 07:18:36;;;;;;;22.80;11.97;;;3.70;99.90;;;;;;4951226;29;20279;-73
2022/01/23 07:21:02;;;;;;;16.23;10.73;;;3.70;99.90;;;;;;4952958;28;20212;-74
2022/01/23 07:23:27;;;;;;;17.33;10.33;;;3.80;99.90;;;;;;4953110;29;20193;-73
2022/01/23 07:25:53;;;;;;;18.23;10.67;;;3.70;99.90;;;;;;4955413;29;20247;-74
2022/01/23 07:28:22;;;;;;;19.37;10.63;;;3.70;99.90;;;;;;4952741;29;20208;-73
2022/01/23 07:30:52;;;;;;;17.70;11.40;;;3.70;99.90;;;;;;4953142;28;20189;-73
2022/01/23 07:33:18;;;;;;;17.30;10.60;;;3.70;99.90;;;;;;4952644;28;20587;-73
2022/01/23 07:35:43;;;;;;;23.53;11.20;;;3.70;99.90;;;;;;4948872;28;20420;-74
2022/01/23 07:38:11;;;;;;;24.37;12.50;;;3.70;99.90;;;;;;4954923;29;20427;-75
2022/01/23 07:40:37;;;;;;;20.40;11.93;;;3.70;99.90;;;;;;4951078;28;20198;-75
2022/01/23 07:43:03;;;;;;;17.17;10.53;;;3.80;99.90;;;;;;4954610;28;20420;-73
2022/01/23 07:45:28;;;;;;;17.90;10.70;;;3.70;99.90;;;;;;4952085;29;20429;-74
2022/01/23 07:47:54;;;;;;;19.50;11.77;;;3.80;99.90;;;;;;4955020;29;20274;-74
2022/01/23 07:50:19;;;;;;;23.10;11.37;;;3.80;99.90;;;;;;4951451;29;20624;-74
2022/01/23 07:52:45;;;;;;;22.73;11.27;;;3.70;99.90;;;;;;4952574;29;20237;-73
2022/01/23 07:55:13;;;;;;;25.10;12.97;;;3.70;99.90;;;;;;4952998;29;20180;-74
2022/01/23 07:57:42;;;;;;;24.33;13.20;;;3.70;99.90;;;;;;4953582;29;20644;-74
2022/01/23 08:00:09;;;;;;;24.60;13.30;;;3.80;99.90;;;;;;4954721;28;20400;-74
2022/01/23 08:02:35;;;;;;;21.27;12.77;;;3.80;99.90;;;;;;4950673;28;20541;-74
2022/01/23 08:05:01;;;;;;;20.47;11.63;;;3.80;99.90;;;;;;4952439;29;20429;-74
2022/01/23 08:09:55;;;;;;;22.57;11.77;;;3.80;99.90;;;;;;4954775;28;20200;-74
2022/01/23 08:12:21;;;;;;;26.43;14.30;;;3.80;99.90;;;;;;4950217;28;20460;-74
2022/01/23 08:14:47;;;;;;;21.73;12.90;;;3.90;99.90;;;;;;4954465;29;20836;-75
2022/01/23 08:17:13;;;;;;;29.03;14.50;;;3.90;99.90;;;;;;4952599;29;20415;-73
2022/01/23 08:19:39;;;;;;;21.67;12.93;;;3.90;99.90;;;;;;4954491;29;20255;-74
2022/01/23 08:22:04;;;;;;;21.30;13.13;;;4.00;99.90;;;;;;4949113;28;20502;-74
2022/01/23 08:24:30;;;;;;;26.83;15.40;;;4.00;99.90;;;;;;4952052;29;20201;-74
2022/01/23 08:26:55;;;;;;;27.87;15.23;;;4.00;99.90;;;;;;4954267;29;20190;-74
2022/01/23 08:29:21;;;;;;;27.40;15.90;;;4.10;99.90;;;;;;4952180;29;20249;-74
2022/01/23 08:31:47;;;;;;;27.07;15.50;;;4.10;99.90;;;;;;4953863;28;20589;-75
2022/01/23 08:34:13;;;;;;;35.80;16.50;;;4.10;99.90;;;;;;4948304;28;20198;-74
2022/01/23 08:36:39;;;;;;;30.30;16.10;;;4.30;99.90;;;;;;4951144;29;20427;-74
2022/01/23 08:39:04;;;;;;;30.87;16.80;;;4.30;99.90;;;;;;4947626;29;20265;-75
2022/01/23 08:44:14;;;;;;;32.43;17.03;;;4.30;99.90;;;;;;4952243;29;20673;-74
2022/01/23 08:46:40;;;;;;;28.87;15.27;;;4.40;99.90;;;;;;4951390;28;20529;-74
2022/01/23 08:49:06;;;;;;;26.73;15.77;;;4.40;99.90;;;;;;4952249;28;20196;-75
2022/01/23 08:51:31;;;;;;;30.33;16.70;;;4.40;99.90;;;;;;4945133;29;20932;-74
2022/01/23 08:53:59;;;;;;;29.50;16.43;;;4.40;99.90;;;;;;4934502;29;20217;-74
2022/01/23 08:56:25;;;;;;;32.60;16.27;;;4.50;99.90;;;;;;4949426;29;20248;-74
2022/01/23 08:58:50;;;;;;;30.80;18.70;;;4.40;99.90;;;;;;4953941;28;20401;-73
2022/01/23 09:01:16;;;;;;;29.80;16.43;;;4.50;99.90;;;;;;4951205;28;20553;-74
2022/01/23 09:03:42;;;;;;;26.03;17.03;;;4.50;99.90;;;;;;4953577;29;20191;-73
2022/01/23 09:06:08;;;;;;;32.57;17.80;;;4.60;99.90;;;;;;4949348;28;20194;-76
2022/01/23 09:08:37;;;;;;;33.70;18.53;;;4.70;99.90;;;;;;4953870;29;20433;-73
2022/01/23 09:11:08;;;;;;;26.80;16.00;;;4.70;99.90;;;;;;4951095;28;20269;-73
2022/01/23 09:13:54;;;;;;;29.37;16.20;;;4.80;99.90;;;;;;4953362;28;20511;-73
2022/01/23 09:16:19;;;;;;;31.67;18.27;;;4.80;99.90;;;;;;4951942;28;20550;-73
2022/01/23 09:18:45;;;;;;;33.57;18.33;;;4.70;99.90;;;;;;4951473;28;20868;-73
2022/01/23 09:21:11;;;;;;;34.13;18.77;;;4.70;99.90;;;;;;4949866;28;20272;-73
2022/01/23 09:23:37;;;;;;;31.37;18.47;;;4.70;99.90;;;;;;4952956;29;20200;-73
2022/01/23 09:26:08;;;;;;;30.83;17.40;;;4.70;99.90;;;;;;4953313;29;20171;-74
2022/01/23 09:28:35;;;;;;;31.70;18.40;;;4.80;99.90;;;;;;4949985;28;20691;-75
2022/01/23 09:31:01;;;;;;;39.60;18.80;;;4.90;99.90;;;;;;4953078;28;20409;-73
2022/01/23 09:33:28;;;;;;;32.87;17.90;;;4.90;99.90;;;;;;4944332;28;20449;-74
2022/01/23 09:35:53;;;;;;;29.80;18.47;;;5.00;99.90;;;;;;4943688;29;20848;-74
2022/01/23 09:38:19;;;;;;;31.80;18.20;;;5.00;99.90;;;;;;4950765;29;20449;-75
2022/01/23 09:40:46;;;;;;;36.53;20.17;;;5.10;99.90;;;;;;4950653;28;20188;-74
2022/01/23 09:43:16;;;;;;;36.73;21.60;;;5.20;99.90;;;;;;4950747;28;21010;-74
2022/01/23 09:45:46;;;;;;;37.70;20.70;;;5.30;99.90;;;;;;4953393;28;20539;-74
2022/01/23 09:48:12;;;;;;;35.27;18.80;;;5.40;99.90;;;;;;4951032;28;20415;-74
2022/01/23 09:50:38;;;;;;;28.17;17.50;;;5.40;99.90;;;;;;4944481;28;20796;-74
2022/01/23 09:53:05;;;;;;;36.50;20.47;;;5.40;99.90;;;;;;4950302;29;20494;-74
2022/01/23 09:55:32;;;;;;;34.63;18.43;;;5.50;99.90;;;;;;4951586;28;20191;-75
2022/01/23 09:57:59;;;;;;;36.37;20.23;;;5.60;99.90;;;;;;4953177;28;20503;-74
2022/01/23 10:00:28;;;;;;;32.77;19.17;;;5.70;99.90;;;;;;4947716;29;20547;-74
2022/01/23 10:02:54;;;;;;;35.63;19.83;;;5.50;99.90;;;;;;4952861;28;20948;-74
2022/01/23 10:05:20;;;;;;;38.10;21.07;;;5.50;99.90;;;;;;4946623;28;20494;-74
2022/01/23 10:07:46;;;;;;;41.77;21.10;;;5.60;99.90;;;;;;4953182;28;20910;-74
2022/01/23 10:10:21;;;;;;;32.37;19.40;;;5.60;99.90;;;;;;4951061;28;20450;-74
2022/01/23 10:12:55;;;;;;;36.73;18.90;;;5.60;99.90;;;;;;4952878;28;20644;-73
2022/01/23 10:15:21;;;;;;;32.47;19.37;;;5.60;99.90;;;;;;4951536;28;20442;-74
2022/01/23 10:17:47;;;;;;;29.57;18.13;;;5.50;99.90;;;;;;4953217;28;20399;-74
2022/01/23 10:20:14;;;;;;;32.50;17.67;;;5.60;99.90;;;;;;4951014;29;20451;-74
2022/01/23 10:22:43;;;;;;;32.30;18.07;;;5.70;99.90;;;;;;4950958;28;20235;-75
2022/01/23 10:25:13;;;;;;;32.30;18.80;;;5.80;99.90;;;;;;4950941;28;20474;-74
2022/01/23 10:27:56;;;;;;;39.00;17.10;;;5.80;99.90;;;;;;4953713;29;20416;-74
2022/01/23 10:30:27;;;;;;;35.17;18.30;;;5.90;99.90;;;;;;4951071;28;20445;-74
2022/01/23 10:33:14;;;;;;;30.03;18.40;;;6.00;99.90;;;;;;4942927;29;20479;-73
2022/01/23 10:35:57;;;;;;;29.03;16.63;;;6.00;99.90;;;;;;4943144;29;20443;-74
2022/01/23 10:38:25;;;;;;;24.30;16.60;;;6.10;99.90;;;;;;4952965;29;20390;-74
2022/01/23 10:41:12;;;;;;;30.23;15.17;;;6.20;99.90;;;;;;4950350;28;20439;-73
2022/01/23 10:47:17;;;;;;;20.90;13.93;;;6.30;99.90;;;;;;4931212;28;20553;-74
2022/01/23 10:49:47;;;;;;;26.53;13.90;;;6.30;99.90;;;;;;4954719;29;20427;-74
2022/01/23 10:52:25;;;;;;;27.37;14.60;;;6.40;99.90;;;;;;4948874;28;20485;-74
2022/01/23 10:54:51;;;;;;;29.90;15.40;;;6.40;99.90;;;;;;4953962;29;20451;-73
2022/01/23 10:57:16;;;;;;;24.50;15.40;;;6.40;99.90;;;;;;4953357;29;20435;-71
2022/01/23 10:59:47;;;;;;;26.07;14.57;;;6.40;99.90;;;;;;4955532;29;20258;-73
2022/01/23 11:02:23;;;;;;;31.40;16.97;;;6.30;99.90;;;;;;4953733;28;20648;-72
2022/01/23 11:05:03;;;;;;;24.50;15.63;;;6.40;99.90;;;;;;4953486;28;20790;-73
2022/01/23 11:07:30;;;;;;;26.33;15.67;;;6.40;99.90;;;;;;4951386;28;20423;-73
2022/01/23 11:10:03;;;;;;;29.40;15.33;;;6.50;99.90;;;;;;4955509;29;20423;-72
2022/01/23 11:17:55;;;;;;;32.50;17.03;;;6.50;99.90;;;;;;4955651;29;20434;-74
2022/01/23 11:20:38;;;;;;;27.80;16.80;;;6.40;99.90;;;;;;4953422;28;20984;-73
2022/01/23 11:23:16;;;;;;;25.40;15.03;;;6.40;99.90;;;;;;4954446;29;20421;-73
2022/01/23 11:26:03;;;;;;;24.43;14.43;;;6.40;99.90;;;;;;4951245;28;20785;-72
2022/01/23 11:28:41;;;;;;;21.27;14.37;;;6.30;99.90;;;;;;4955186;28;20806;-72
2022/01/23 11:31:13;;;;;;;18.17;10.20;;;6.40;99.90;;;;;;4952944;28;20443;-73
2022/01/23 11:33:40;;;;;;;18.23;12.03;;;6.40;99.90;;;;;;4950689;28;20473;-73
2022/01/23 11:36:06;;;;;;;23.20;11.30;;;6.40;99.90;;;;;;4946016;29;20987;-72
2022/01/23 11:38:32;;;;;;;19.67;12.43;;;6.30;99.90;;;;;;4954737;29;20937;-72
2022/01/23 11:54:50;;;;;;;14.43;10.60;;;6.80;99.90;;;;;;4954311;29;20431;-74
2022/01/23 11:57:34;;;;;;;12.40;9.40;;;6.80;99.90;;;;;;4952546;28;20491;-74
2022/01/23 12:00:05;;;;;;;18.80;10.60;;;6.70;99.90;;;;;;4952496;28;20468;-73
2022/01/23 12:02:37;;;;;;;17.80;9.17;;;6.70;99.90;;;;;;4951755;28;20477;-73
2022/01/23 12:05:16;;;;;;;18.03;10.70;;;6.80;99.90;;;;;;4954402;28;20795;-72
2022/01/23 12:07:44;;;;;;;18.80;12.03;;;6.80;99.90;;;;;;4952055;28;20455;-73
2022/01/23 12:10:27;;;;;;;19.17;11.23;;;6.90;99.90;;;;;;4950995;29;20433;-73
2022/01/23 12:16:26;;;;;;;20.37;12.47;;;7.10;99.90;;;;;;4935329;29;20509;-72
2022/01/23 12:19:22;;;;;;;13.10;9.37;;;7.20;99.90;;;;;;4934604;29;20475;-74
2022/01/23 12:21:50;;;;;;;17.80;10.27;;;7.10;99.90;;;;;;4942591;29;20477;-74
2022/01/23 12:24:18;;;;;;;17.80;11.53;;;7.00;99.90;;;;;;4953806;28;20502;-74
2022/01/23 12:26:48;;;;;;;13.07;9.03;;;7.00;99.90;;;;;;4951569;28;20559;-73
2022/01/23 12:29:23;;;;;;;14.57;8.80;;;7.00;99.90;;;;;;4954010;28;20512;-73
2022/01/23 12:32:10;;;;;;;16.00;10.90;;;7.00;99.90;;;;;;4947541;28;21305;-74
2022/01/23 12:34:46;;;;;;;14.90;9.67;;;7.00;99.90;;;;;;4948506;28;21006;-73
2022/01/23 12:37:11;;;;;;;16.20;10.70;;;7.00;99.90;;;;;;4950923;29;20460;-74
2022/01/23 12:39:37;;;;;;;18.07;10.23;;;7.00;99.90;;;;;;4953430;28;20476;-73
2022/01/23 12:42:05;;;;;;;11.40;7.83;;;7.00;99.90;;;;;;4950357;28;20263;-73
2022/01/23 12:44:34;;;;;;;12.83;8.77;;;7.00;99.90;;;;;;4953049;28;20230;-74
2022/01/23 12:47:04;;;;;;;8.80;5.70;;;7.00;99.90;;;;;;4952461;28;20761;-73
2022/01/23 12:49:35;;;;;;;6.57;5.40;;;6.90;99.90;;;;;;4952257;28;20880;-73
2022/01/23 12:52:09;;;;;;;9.30;5.40;;;6.90;99.90;;;;;;4950296;28;20480;-74
2022/01/23 12:54:50;;;;;;;9.40;5.77;;;6.80;99.90;;;;;;4953537;28;20457;-73
2022/01/23 12:57:38;;;;;;;5.13;4.23;;;6.70;99.90;;;;;;4953795;28;20456;-73
2022/01/23 13:00:12;;;;;;;12.23;5.57;;;6.50;99.90;;;;;;4952621;28;21054;-73
2022/01/23 13:02:46;;;;;;;9.17;6.63;;;6.50;99.90;;;;;;4952743;28;20440;-74
2022/01/23 13:05:14;;;;;;;8.83;6.67;;;6.40;99.90;;;;;;4949469;28;20507;-73
2022/01/23 13:07:48;;;;;;;10.63;5.70;;;6.40;99.90;;;;;;4946376;28;20546;-73
2022/01/23 13:12:50;;;;;;;10.10;6.53;;;6.40;99.90;;;;;;4953128;28;20977;-71
2022/01/23 13:31:49;;;;;;;16.30;8.23;;;6.40;99.90;;;;;;4950748;28;20562;-74
2022/01/23 13:34:22;;;;;;;10.33;7.10;;;6.40;99.90;;;;;;4949133;28;20557;-74
2022/01/23 13:36:54;;;;;;;12.20;6.27;;;6.40;99.90;;;;;;4944113;29;20520;-73
2022/01/23 13:39:30;;;;;;;5.20;3.80;;;6.40;99.90;;;;;;4933640;29;20467;-74
2022/01/23 13:42:31;;;;;;;6.70;3.97;;;6.30;99.90;;;;;;4933622;29;20440;-73
2022/01/23 13:51:13;;;;;;;4.23;3.00;;;6.30;99.90;;;;;;4949927;28;20828;-72
2022/01/23 13:59:23;;;;;;;5.27;4.50;;;6.40;99.90;;;;;;4950747;28;21042;-73
2022/01/23 14:02:06;;;;;;;6.40;4.70;;;6.30;99.90;;;;;;4950586;28;20521;-72
2022/01/23 14:05:03;;;;;;;5.60;3.77;;;6.40;99.90;;;;;;4949938;28;20602;-73
2022/01/23 14:07:29;;;;;;;3.67;3.30;;;6.30;99.90;;;;;;4939551;29;20478;-74
2022/01/23 14:09:59;;;;;;;4.33;3.93;;;6.30;99.90;;;;;;4950690;28;20838;-73
2022/01/23 14:12:26;;;;;;;6.70;4.67;;;6.20;99.90;;;;;;4950673;28;20484;-73
2022/01/23 14:14:57;;;;;;;4.90;3.90;;;6.20;99.90;;;;;;4952436;28;20458;-73
2022/01/23 14:17:25;;;;;;;6.50;4.90;;;6.30;99.90;;;;;;4949701;29;20438;-73
2022/01/23 14:20:17;;;;;;;5.50;3.67;;;6.20;99.90;;;;;;4953398;28;20217;-71
2022/01/23 14:22:46;;;;;;;3.93;3.20;;;6.20;99.90;;;;;;4949836;28;20440;-71
2022/01/23 14:25:24;;;;;;;6.00;3.30;;;6.20;99.90;;;;;;4956579;28;20956;-72
2022/01/23 14:28:14;;;;;;;3.00;2.70;;;6.20;99.90;;;;;;4954686;29;20513;-73
2022/01/23 14:30:44;;;;;;;3.60;2.70;;;6.30;99.90;;;;;;4955047;28;20469;-72
2022/01/23 14:33:16;;;;;;;2.73;2.37;;;6.30;99.90;;;;;;4949833;28;20483;-74
2022/01/23 14:35:42;;;;;;;4.07;2.93;;;6.20;99.90;;;;;;4946931;28;20467;-73
2022/01/23 14:38:11;;;;;;;5.50;3.10;;;6.10;99.90;;;;;;4952649;29;20417;-73
2022/01/23 14:40:38;;;;;;;3.10;2.27;;;6.20;99.90;;;;;;4955428;28;20208;-71
2022/01/23 14:43:10;;;;;;;2.00;1.90;;;6.10;99.90;;;;;;4953566;28;20507;-73
2022/01/23 14:45:42;;;;;;;2.40;2.20;;;6.10;99.90;;;;;;4953559;28;20490;-73
2022/01/23 14:48:09;;;;;;;4.07;2.43;;;6.00;99.90;;;;;;4955408;29;20485;-73
2022/01/23 14:50:39;;;;;;;4.90;2.83;;;6.00;99.90;;;;;;4952809;29;21030;-73
2022/01/23 14:53:07;;;;;;;7.83;2.70;;;6.00;99.90;;;;;;4953282;28;20840;-73
2022/01/23 14:55:33;;;;;;;3.67;2.73;;;6.00;99.90;;;;;;4951453;28;20524;-73
2022/01/23 14:58:01;;;;;;;4.40;2.70;;;6.00;99.90;;;;;;4955808;29;20445;-73
2022/01/23 15:00:32;;;;;;;4.20;3.70;;;6.00;99.90;;;;;;4952001;28;20471;-73
2022/01/23 15:03:02;;;;;;;2.80;2.50;;;5.90;99.90;;;;;;4953407;28;20477;-73
2022/01/23 15:05:33;;;;;;;9.53;5.47;;;5.90;99.90;;;;;;4951647;28;20480;-73
2022/01/23 15:08:00;;;;;;;5.50;3.33;;;6.00;99.90;;;;;;4953592;29;20428;-73
2022/01/23 15:10:26;;;;;;;6.13;2.63;;;6.00;99.90;;;;;;4954315;28;20428;-72
2022/01/23 15:12:52;;;;;;;3.10;2.80;;;5.80;99.90;;;;;;4953985;28;20477;-73
2022/01/23 15:15:18;;;;;;;5.13;2.87;;;5.80;99.90;;;;;;4954132;29;20475;-73
2022/01/23 15:17:44;;;;;;;2.70;2.13;;;5.80;99.90;;;;;;4951372;29;20203;-73
2022/01/23 15:20:10;;;;;;;4.53;3.43;;;5.70;99.90;;;;;;4954747;28;20432;-73
2022/01/23 15:22:36;;;;;;;3.40;3.10;;;5.70;99.90;;;;;;4951923;28;20517;-73
2022/01/23 15:25:06;;;;;;;4.10;2.67;;;5.70;99.90;;;;;;4955916;28;20975;-73
2022/01/23 15:27:32;;;;;;;4.53;2.70;;;5.70;99.90;;;;;;4953947;28;20218;-73
2022/01/23 15:29:58;;;;;;;3.40;2.77;;;5.60;99.90;;;;;;4949967;28;21004;-73
2022/01/23 15:32:23;;;;;;;3.73;2.80;;;5.60;99.90;;;;;;4955688;29;20530;-72
2022/01/23 15:34:50;;;;;;;5.13;2.83;;;5.60;99.90;;;;;;4949821;28;20254;-73
2022/01/23 15:37:15;;;;;;;4.27;3.00;;;5.60;99.90;;;;;;4953325;28;20209;-73
2022/01/23 15:39:42;;;;;;;3.30;3.00;;;5.60;99.90;;;;;;4950826;28;20500;-74
2022/01/23 15:42:08;;;;;;;4.53;2.63;;;5.50;99.90;;;;;;4954518;28;20216;-73
2022/01/23 15:44:34;;;;;;;5.50;4.77;;;5.50;99.90;;;;;;4952382;28;20897;-73
2022/01/23 15:46:59;;;;;;;4.77;3.40;;;5.50;99.90;;;;;;4955191;29;20455;-73
2022/01/23 15:49:25;;;;;;;6.70;4.73;;;5.50;99.90;;;;;;4952583;28;20232;-73
2022/01/23 15:51:50;;;;;;;4.20;3.30;;;5.50;99.90;;;;;;4948374;29;20203;-74
2022/01/23 15:54:18;;;;;;;3.83;3.07;;;5.50;99.90;;;;;;4951145;28;20244;-74
2022/01/23 15:56:48;;;;;;;4.77;2.83;;;5.50;99.90;;;;;;4954442;28;20319;-73
2022/01/23 15:59:15;;;;;;;3.10;2.90;;;5.50;99.90;;;;;;4953102;28;20422;-74
2022/01/23 16:01:42;;;;;;;4.50;2.80;;;5.40;99.90;;;;;;4950185;29;20474;-74
2022/01/23 16:04:08;;;;;;;4.27;3.00;;;5.50;99.90;;;;;;4954187;28;20883;-74
2022/01/23 16:06:33;;;;;;;2.17;1.97;;;5.40;99.90;;;;;;4948014;29;20486;-74
2022/01/23 16:08:59;;;;;;;2.40;1.80;;;5.40;99.90;;;;;;4954395;28;20207;-72
2022/01/23 16:11:24;;;;;;;2.37;2.17;;;5.40;99.90;;;;;;4951521;28;20201;-73
2022/01/23 16:13:50;;;;;;;2.90;2.50;;;5.40;99.90;;;;;;4951911;29;20286;-74
2022/01/23 16:16:16;;;;;;;2.90;2.67;;;5.40;99.90;;;;;;4952035;28;20820;-73
2022/01/23 16:18:41;;;;;;;3.03;2.57;;;5.40;99.90;;;;;;4952787;29;20502;-73
2022/01/23 16:21:07;;;;;;;3.20;2.60;;;5.30;99.90;;;;;;4952227;28;20226;-72
2022/01/23 16:23:33;;;;;;;4.50;2.70;;;5.30;99.90;;;;;;4951452;29;20207;-73
2022/01/23 16:26:00;;;;;;;2.90;2.50;;;5.30;99.90;;;;;;4954188;28;20801;-72
2022/01/23 16:28:25;;;;;;;7.87;2.33;;;5.30;99.90;;;;;;4951570;29;20986;-72
2022/01/23 16:30:54;;;;;;;2.93;2.03;;;5.30;99.90;;;;;;4953658;28;20462;-74
2022/01/23 16:33:23;;;;;;;2.43;2.17;;;5.30;99.90;;;;;;4946966;28;20218;-74
2022/01/23 16:35:49;;;;;;;3.40;2.77;;;5.30;99.90;;;;;;4951790;29;20481;-74
2022/01/23 16:38:15;;;;;;;7.20;3.80;;;5.30;99.90;;;;;;4950119;28;20466;-75
2022/01/23 16:40:42;;;;;;;4.60;3.10;;;5.30;99.90;;;;;;4953792;28;20956;-74
2022/01/23 16:43:08;;;;;;;3.20;2.90;;;5.20;99.90;;;;;;4952376;28;21090;-75
2022/01/23 16:45:34;;;;;;;4.70;3.47;;;5.20;99.90;;;;;;4950025;29;20447;-75
2022/01/23 16:48:00;;;;;;;4.13;3.00;;;5.20;99.90;;;;;;4954086;28;20201;-72
2022/01/23 16:50:26;;;;;;;3.37;3.07;;;5.20;99.90;;;;;;4952203;28;20478;-74
2022/01/23 16:52:52;;;;;;;3.27;2.70;;;5.20;99.90;;;;;;4951450;28;20835;-74
2022/01/23 16:55:18;;;;;;;4.27;3.40;;;5.20;99.90;;;;;;4951067;28;20219;-75
2022/01/23 16:57:44;;;;;;;10.17;5.10;;;5.20;99.90;;;;;;4934884;29;20458;-75
2022/01/23 17:00:11;;;;;;;9.53;4.73;;;5.10;99.90;;;;;;4935988;29;20809;-76
2022/01/23 17:02:37;;;;;;;7.13;3.63;;;5.10;99.90;;;;;;4953489;28;20687;-76
2022/01/23 17:05:03;;;;;;;6.33;4.10;;;5.10;99.90;;;;;;4953585;28;20472;-75
2022/01/23 17:07:29;;;;;;;4.00;3.50;;;5.10;99.90;;;;;;4949511;29;20469;-75
2022/01/23 17:09:54;;;;;;;4.87;3.60;;;5.00;99.90;;;;;;4953720;28;20224;-75
2022/01/23 17:12:20;;;;;;;7.13;4.00;;;5.00;99.90;;;;;;4951445;28;20699;-76
2022/01/23 17:14:45;;;;;;;4.50;4.00;;;5.00;99.90;;;;;;4946946;28;20234;-75
2022/01/23 17:17:10;;;;;;;5.27;3.33;;;5.00;99.90;;;;;;4949107;29;20198;-75
2022/01/23 17:19:36;;;;;;;4.03;2.90;;;5.00;99.90;;;;;;4951529;28;20233;-74
2022/01/23 17:22:02;;;;;;;5.07;3.63;;;5.00;99.90;;;;;;4950605;29;20289;-74
2022/01/23 17:24:28;;;;;;;4.00;3.23;;;4.90;99.90;;;;;;4947331;29;20576;-74
2022/01/23 17:26:54;;;;;;;3.23;2.87;;;5.00;99.90;;;;;;4952905;28;20206;-73
2022/01/23 17:29:19;;;;;;;3.88;3.45;;;5.00;99.90;;;;;;4950509;29;20413;-73
2022/01/23 17:31:48;;;;;;;4.97;2.80;;;5.00;99.90;;;;;;4952108;29;20248;-74
2022/01/23 17:34:14;;;;;;;3.90;3.00;;;5.00;99.90;;;;;;4952477;28;20692;-76
2022/01/23 17:36:40;;;;;;;6.37;4.10;;;4.90;99.90;;;;;;4953017;29;20758;-76
2022/01/23 17:39:05;;;;;;;3.93;2.73;;;4.90;99.90;;;;;;4952905;28;20411;-77
2022/01/23 17:41:31;;;;;;;5.40;4.30;;;4.90;99.90;;;;;;4952888;28;20622;-75
2022/01/23 17:43:56;;;;;;;7.40;4.27;;;4.90;99.90;;;;;;4952664;29;20183;-76
2022/01/23 17:46:25;;;;;;;7.70;4.60;;;4.90;99.90;;;;;;4953022;29;20182;-76
2022/01/23 17:49:02;;;;;;;4.13;3.27;;;4.90;99.90;;;;;;4953344;28;20603;-76
2022/01/23 17:51:29;;;;;;;7.93;5.33;;;4.90;99.90;;;;;;4953170;28;20421;-78
2022/01/23 17:53:55;;;;;;;5.17;4.10;;;4.90;99.90;;;;;;4954881;28;20867;-75
2022/01/23 17:56:21;;;;;;;5.50;3.33;;;4.90;99.90;;;;;;4957019;29;20415;-76
2022/01/23 17:58:48;;;;;;;5.70;3.07;;;4.90;99.90;;;;;;4956987;28;20665;-76
2022/01/23 18:01:14;;;;;;;4.57;3.93;;;5.00;99.90;;;;;;4954171;28;20232;-76
2022/01/23 18:03:40;;;;;;;6.70;4.47;;;4.90;99.90;;;;;;4956451;29;20561;-75
2022/01/23 18:06:12;;;;;;;4.60;3.83;;;4.90;99.90;;;;;;4957136;28;20517;-75
2022/01/23 18:08:38;;;;;;;4.97;3.33;;;4.90;99.90;;;;;;4957305;28;20428;-76
2022/01/23 18:11:03;;;;;;;5.33;4.20;;;4.90;99.90;;;;;;4957020;29;20456;-76
2022/01/23 18:13:29;;;;;;;5.10;4.60;;;4.90;99.90;;;;;;4956739;29;20461;-75
2022/01/23 18:15:56;;;;;;;5.80;4.03;;;5.00;99.90;;;;;;4957218;28;20651;-76
2022/01/23 18:18:23;;;;;;;6.10;4.50;;;4.90;99.90;;;;;;4955801;29;20177;-73
2022/01/23 18:20:49;;;;;;;5.33;4.40;;;4.90;99.90;;;;;;4956895;28;20867;-75
2022/01/23 18:23:15;;;;;;;6.13;3.80;;;4.90;99.90;;;;;;4956685;28;20967;-76
2022/01/23 18:25:44;;;;;;;10.87;5.40;;;4.90;99.90;;;;;;4956941;28;20425;-76
2022/01/23 18:28:11;;;;;;;8.63;4.80;;;4.90;99.90;;;;;;4956634;28;20457;-76
2022/01/23 18:30:37;;;;;;;7.07;3.90;;;4.90;99.90;;;;;;4956535;28;20430;-76
2022/01/23 18:33:02;;;;;;;5.30;4.23;;;4.90;99.90;;;;;;4956538;28;21128;-76
2022/01/23 18:35:28;;;;;;;4.63;3.70;;;4.90;99.90;;;;;;4956682;29;20181;-76